createdAt,value
2023-09-06T00:02:37.987Z,99.90
2023-09-06T00:05:07.798Z,99.90
2023-09-06T00:07:45.785Z,99.90
2023-09-06T00:10:14.189Z,99.90
2023-09-06T00:12:50.473Z,99.90
2023-09-06T00:15:24.149Z,99.90
2023-09-06T00:20:56.984Z,99.90
2023-09-06T00:23:28.982Z,99.90
2023-09-06T00:26:03.282Z,99.90
2023-09-06T00:28:34.313Z,99.90
2023-09-06T00:31:03.927Z,99.90
2023-09-06T00:33:36.538Z,99.90
2023-09-06T00:36:07.927Z,99.90
2023-09-06T00:38:36.500Z,99.90
2023-09-06T00:41:06.746Z,99.90
2023-09-06T00:43:37.427Z,99.90
2023-09-06T00:46:09.661Z,99.90
2023-09-06T00:48:38.943Z,99.90
2023-09-06T00:51:09.366Z,99.90
2023-09-06T00:53:38.611Z,99.90
2023-09-06T00:56:11.026Z,99.90
2023-09-06T00:58:40.738Z,99.90
2023-09-06T01:01:11.356Z,99.90
2023-09-06T01:03:42.855Z,99.90
2023-09-06T01:06:17.371Z,99.90
2023-09-06T01:08:53.273Z,99.90
2023-09-06T01:11:23.464Z,99.90
2023-09-06T01:14:04.893Z,99.90
2023-09-06T01:16:35.690Z,99.90
2023-09-06T01:19:05.019Z,99.90
2023-09-06T01:22:10.802Z,99.90
2023-09-06T01:24:43.824Z,99.90
2023-09-06T01:27:15.262Z,99.90
2023-09-06T01:29:46.001Z,99.90
2023-09-06T01:32:15.644Z,99.90
2023-09-06T01:34:46.138Z,99.90
2023-09-06T01:37:17.448Z,99.90
2023-09-06T01:39:46.731Z,99.90
2023-09-06T01:42:16.295Z,99.90
2023-09-06T01:44:45.169Z,99.90
2023-09-06T01:47:15.608Z,99.90
2023-09-06T01:49:47.059Z,99.90
2023-09-06T01:52:16.626Z,99.90
2023-09-06T01:54:48.088Z,99.90
2023-09-06T01:57:18.646Z,99.90
2023-09-06T01:59:47.749Z,99.90
2023-09-06T02:02:17.951Z,99.90
2023-09-06T02:04:47.175Z,99.90
2023-09-06T02:07:17.504Z,99.90
2023-09-06T02:09:46.154Z,99.90
2023-09-06T02:12:14.811Z,99.90
2023-09-06T02:14:46.365Z,99.90
2023-09-06T02:17:16.505Z,99.90
2023-09-06T02:19:44.693Z,99.90
2023-09-06T02:22:16.687Z,99.90
2023-09-06T02:24:47.952Z,99.90
2023-09-06T02:27:18.807Z,99.90
2023-09-06T02:33:33.105Z,99.90
2023-09-06T02:35:59.907Z,99.90
2023-09-06T02:38:27.577Z,99.90
2023-09-06T02:40:54.550Z,99.90
2023-09-06T02:43:22.198Z,99.90
2023-09-06T02:45:51.612Z,99.90
2023-09-06T02:48:19.856Z,99.90
2023-09-06T02:50:46.917Z,99.90
2023-09-06T02:53:21.350Z,99.90
2023-09-06T02:55:55.093Z,99.90
2023-09-06T02:58:26.377Z,99.90
2023-09-06T03:00:59.031Z,99.90
2023-09-06T03:03:29.679Z,99.90
2023-09-06T03:05:58.087Z,99.90
2023-09-06T03:08:27.048Z,99.90
2023-09-06T03:10:54.087Z,99.90
2023-09-06T03:13:21.592Z,99.90
2023-09-06T03:15:52.561Z,99.90
2023-09-06T03:18:23.777Z,99.90
2023-09-06T03:20:50.830Z,99.90
2023-09-06T03:23:20.965Z,99.90
2023-09-06T03:25:55.468Z,99.90
2023-09-06T03:28:23.452Z,99.90
2023-09-06T03:30:50.522Z,99.90
2023-09-06T03:33:18.173Z,99.90
2023-09-06T03:35:46.571Z,99.90
2023-09-06T03:38:17.063Z,99.90
2023-09-06T03:40:44.744Z,99.90
2023-09-06T03:43:20.682Z,99.90
2023-09-06T03:45:52.596Z,99.90
2023-09-06T03:48:24.865Z,99.90
2023-09-06T03:50:54.743Z,99.90
2023-09-06T03:53:21.619Z,99.90
2023-09-06T03:55:48.551Z,99.90
2023-09-06T03:58:15.558Z,99.90
2023-09-06T04:00:46.208Z,99.90
2023-09-06T04:03:16.121Z,99.90
2023-09-06T04:05:45.062Z,99.90
2023-09-06T04:08:12.241Z,99.90
2023-09-06T04:10:39.887Z,99.90
2023-09-06T04:13:09.940Z,99.90
2023-09-06T04:15:38.053Z,99.90
2023-09-06T04:18:07.255Z,99.90
2023-09-06T04:20:39.575Z,99.90
2023-09-06T04:23:14.123Z,99.90
2023-09-06T04:25:46.647Z,99.90
2023-09-06T04:28:17.667Z,99.90
2023-09-06T04:30:49.236Z,99.90
2023-09-06T04:33:16.263Z,99.90
2023-09-06T04:35:48.623Z,99.90
2023-09-06T04:38:17.621Z,99.90
2023-09-06T04:40:47.560Z,99.90
2023-09-06T04:43:18.810Z,99.90
2023-09-06T04:45:53.033Z,99.90
2023-09-06T04:48:25.264Z,99.90
2023-09-06T04:50:56.115Z,99.90
2023-09-06T04:53:25.890Z,99.90
2023-09-06T04:55:54.519Z,99.90
2023-09-06T04:58:24.392Z,99.90
2023-09-06T05:00:53.212Z,99.90
2023-09-06T05:03:22.571Z,99.90
2023-09-06T05:05:51.366Z,99.90
2023-09-06T05:08:21.694Z,99.90
2023-09-06T05:10:53.760Z,99.90
2023-09-06T05:13:25.255Z,99.90
2023-09-06T05:16:09.820Z,99.90
2023-09-06T05:18:47.871Z,99.90
2023-09-06T05:21:19.052Z,99.90
2023-09-06T05:23:49.010Z,99.90
2023-09-06T05:26:18.271Z,99.90
2023-09-06T05:28:50.464Z,99.90
2023-09-06T05:31:20.814Z,99.90
2023-09-06T05:33:49.610Z,99.90
2023-09-06T05:36:20.458Z,99.90
2023-09-06T05:38:49.212Z,99.90
2023-09-06T05:41:17.880Z,99.90
2023-09-06T05:43:48.835Z,99.90
2023-09-06T05:46:31.578Z,99.90
2023-09-06T05:49:02.667Z,99.90
2023-09-06T05:51:33.390Z,99.90
2023-09-06T05:54:02.914Z,99.90
2023-09-06T05:56:31.862Z,99.90
2023-09-06T05:59:02.808Z,99.90
2023-09-06T06:01:36.209Z,99.90
2023-09-06T06:04:05.710Z,99.90
2023-09-06T06:06:36.771Z,95.40
2023-09-06T06:09:06.308Z,85.80
2023-09-06T06:11:37.903Z,77.70
2023-09-06T06:14:10.908Z,79.50
2023-09-06T06:16:41.182Z,83.10
2023-09-06T06:19:11.678Z,88.20
2023-09-06T06:21:41.011Z,91.10
2023-09-06T06:24:12.683Z,91.30
2023-09-06T06:26:46.069Z,93.00
2023-09-06T06:29:14.974Z,91.10
2023-09-06T06:31:45.019Z,86.90
2023-09-06T06:34:16.512Z,81.10
2023-09-06T06:36:45.077Z,73.80
2023-09-06T06:39:19.880Z,66.60
2023-09-06T06:41:51.844Z,59.40
2023-09-06T06:44:20.880Z,55.50
2023-09-06T06:46:50.630Z,50.40
2023-09-06T06:49:19.786Z,48.50
2023-09-06T06:51:52.989Z,46.20
2023-09-06T06:54:22.581Z,44.10
2023-09-06T06:56:51.691Z,41.30
2023-09-06T06:59:20.412Z,41.20
2023-09-06T07:01:50.088Z,38.30
2023-09-06T07:04:18.980Z,36.80
2023-09-06T07:06:49.846Z,35.50
2023-09-06T07:09:18.128Z,35.40
2023-09-06T07:11:49.519Z,34.20
2023-09-06T07:14:19.892Z,33.80
2023-09-06T07:16:48.934Z,32.90
2023-09-06T07:19:17.786Z,33.30
2023-09-06T07:21:49.255Z,33.50
2023-09-06T07:24:18.144Z,33.20
2023-09-06T07:26:46.393Z,33.00
2023-09-06T07:29:14.950Z,32.50
2023-09-06T07:31:43.584Z,32.60
2023-09-06T07:34:13.381Z,32.30
2023-09-06T07:36:42.040Z,32.00
2023-09-06T07:39:10.772Z,30.80
2023-09-06T07:41:42.496Z,31.10
2023-09-06T07:44:11.950Z,30.10
2023-09-06T07:46:41.368Z,30.30
2023-09-06T07:49:12.357Z,30.00
2023-09-06T07:51:41.274Z,29.90
2023-09-06T07:54:11.127Z,29.30
2023-09-06T07:56:41.580Z,29.20
2023-09-06T07:59:14.052Z,29.10
2023-09-06T08:01:44.480Z,28.90
2023-09-06T08:04:13.944Z,28.20
2023-09-06T08:06:42.211Z,28.70
2023-09-06T08:09:12.376Z,28.50
2023-09-06T08:11:42.178Z,28.20
2023-09-06T08:14:11.390Z,28.00
2023-09-06T08:16:40.634Z,28.10
2023-09-06T08:19:09.564Z,28.20
2023-09-06T08:21:38.537Z,28.30
2023-09-06T08:24:08.014Z,27.90
2023-09-06T08:26:39.329Z,27.60
2023-09-06T08:29:08.406Z,27.80
2023-09-06T08:31:37.511Z,27.90
2023-09-06T08:34:06.663Z,28.20
2023-09-06T08:36:35.368Z,28.60
2023-09-06T08:39:04.176Z,28.90
2023-09-06T08:41:34.039Z,28.80
2023-09-06T08:44:08.073Z,29.60
2023-09-06T08:46:43.261Z,29.80
2023-09-06T08:49:12.168Z,29.50
2023-09-06T08:51:44.039Z,29.20
2023-09-06T08:54:14.494Z,29.40
2023-09-06T08:56:43.600Z,29.30
2023-09-06T08:59:14.130Z,29.60
2023-09-06T09:01:41.892Z,30.20
2023-09-06T09:04:14.397Z,30.50
2023-09-06T09:06:50.058Z,30.70
2023-09-06T09:09:24.198Z,32.60
2023-09-06T09:11:57.796Z,33.60
2023-09-06T09:14:35.071Z,35.20
2023-09-06T09:17:08.073Z,36.40
2023-09-06T09:19:37.987Z,36.00
2023-09-06T09:22:09.581Z,37.20
2023-09-06T09:24:40.298Z,38.60
2023-09-06T09:27:09.960Z,38.30
2023-09-06T09:29:38.412Z,38.10
2023-09-06T09:32:08.264Z,38.30
2023-09-06T09:34:37.176Z,40.40
2023-09-06T09:37:08.330Z,40.40
2023-09-06T09:39:36.696Z,38.10
2023-09-06T09:42:06.036Z,39.30
2023-09-06T09:44:36.108Z,38.40
2023-09-06T09:47:38.832Z,39.00
2023-09-06T09:50:05.103Z,39.70
2023-09-06T09:52:35.312Z,40.10
2023-09-06T09:55:08.710Z,40.60
2023-09-06T09:57:37.344Z,39.20
2023-09-06T10:00:08.600Z,40.10
2023-09-06T10:02:40.857Z,40.60
2023-09-06T10:05:14.024Z,42.50
2023-09-06T10:07:49.729Z,42.20
2023-09-06T10:10:19.767Z,43.20
2023-09-06T10:12:54.315Z,41.70
2023-09-06T10:15:26.506Z,43.10
2023-09-06T10:17:57.799Z,44.60
2023-09-06T10:20:28.764Z,46.10
2023-09-06T10:22:59.199Z,46.30
2023-09-06T10:25:28.988Z,46.40
2023-09-06T10:27:58.458Z,47.40
2023-09-06T10:30:47.443Z,48.10
2023-09-06T10:33:39.448Z,49.50
2023-09-06T10:36:11.214Z,48.20
2023-09-06T10:38:57.131Z,49.10
2023-09-06T10:41:30.001Z,50.10
2023-09-06T10:44:00.677Z,51.50
2023-09-06T10:46:33.994Z,52.20
2023-09-06T10:49:30.153Z,53.30
2023-09-06T10:52:05.931Z,54.80
2023-09-06T10:54:46.655Z,55.70
2023-09-06T10:57:16.794Z,56.00
2023-09-06T10:59:46.359Z,57.00
2023-09-06T11:02:23.865Z,57.60
2023-09-06T11:05:06.265Z,57.90
2023-09-06T11:07:50.154Z,57.80
2023-09-06T11:10:35.565Z,57.70
2023-09-06T11:13:14.497Z,58.00
2023-09-06T11:15:43.543Z,58.40
2023-09-06T11:18:12.754Z,58.80
2023-09-06T11:20:41.551Z,58.90
2023-09-06T11:23:10.501Z,58.90
2023-09-06T11:25:42.119Z,59.30
2023-09-06T11:28:21.354Z,59.00
2023-09-06T11:30:51.087Z,58.10
2023-09-06T11:33:20.904Z,59.30
2023-09-06T11:36:00.306Z,59.00
2023-09-06T11:38:34.726Z,59.40
2023-09-06T11:41:09.262Z,59.30
2023-09-06T11:43:42.962Z,59.60
2023-09-06T11:46:19.007Z,60.40
2023-09-06T11:48:49.569Z,61.50
2023-09-06T11:51:20.858Z,61.30
2023-09-06T11:54:07.080Z,62.50
2023-09-06T11:56:41.404Z,62.70
2023-09-06T11:59:14.992Z,63.30
2023-09-06T12:01:48.033Z,63.10
2023-09-06T12:04:22.508Z,64.00
2023-09-06T12:09:48.081Z,64.60
2023-09-06T12:12:18.532Z,64.30
2023-09-06T12:14:46.019Z,64.30
2023-09-06T12:17:14.044Z,65.20
2023-09-06T12:19:46.410Z,65.30
2023-09-06T12:22:18.594Z,64.60
2023-09-06T12:24:49.984Z,64.70
2023-09-06T12:27:20.380Z,64.90
2023-09-06T12:29:48.336Z,64.60
2023-09-06T12:32:19.692Z,65.40
2023-09-06T12:34:48.668Z,66.50
2023-09-06T12:37:19.327Z,66.00
2023-09-06T12:39:48.072Z,67.60
2023-09-06T12:42:19.724Z,66.30
2023-09-06T12:44:52.504Z,66.10
2023-09-06T12:47:23.271Z,66.00
2023-09-06T12:49:52.971Z,65.90
2023-09-06T12:52:23.137Z,66.20
2023-09-06T12:54:52.104Z,65.70
2023-09-06T12:57:19.377Z,65.90
2023-09-06T12:59:46.856Z,66.00
2023-09-06T13:02:15.201Z,66.00
2023-09-06T13:04:44.274Z,65.30
2023-09-06T13:07:12.923Z,64.80
2023-09-06T13:09:41.560Z,65.50
2023-09-06T13:12:08.848Z,65.50
2023-09-06T13:14:36.276Z,65.10
2023-09-06T13:17:06.021Z,64.30
2023-09-06T13:19:34.016Z,64.30
2023-09-06T13:22:04.835Z,64.30
2023-09-06T13:24:34.577Z,64.50
2023-09-06T13:27:02.979Z,63.50
2023-09-06T13:29:33.181Z,63.20
2023-09-06T13:32:02.722Z,62.50
2023-09-06T13:34:32.825Z,62.20
2023-09-06T13:37:04.684Z,61.10
2023-09-06T13:39:34.009Z,62.40
2023-09-06T13:42:02.695Z,62.10
2023-09-06T13:44:35.277Z,62.80
2023-09-06T13:47:03.955Z,63.00
2023-09-06T13:49:32.943Z,63.30
2023-09-06T13:52:01.903Z,63.50
2023-09-06T13:54:30.653Z,62.90
2023-09-06T13:56:59.360Z,63.10
2023-09-06T13:59:28.039Z,61.70
2023-09-06T14:01:58.137Z,61.70
2023-09-06T14:04:26.653Z,61.60
2023-09-06T14:06:55.992Z,61.60
2023-09-06T14:09:24.825Z,60.70
2023-09-06T14:11:56.072Z,60.60
2023-09-06T14:14:25.281Z,60.80
2023-09-06T14:16:55.006Z,61.40
2023-09-06T14:19:23.830Z,60.00
2023-09-06T14:21:53.767Z,60.50
2023-09-06T14:24:22.603Z,60.30
2023-09-06T14:26:52.192Z,59.80
2023-09-06T14:29:21.794Z,60.20
2023-09-06T14:31:50.437Z,60.30
2023-09-06T14:34:18.800Z,60.50
2023-09-06T14:36:47.520Z,60.20
2023-09-06T14:39:16.676Z,61.20
2023-09-06T14:41:45.118Z,60.50
2023-09-06T14:44:14.851Z,61.00
2023-09-06T14:46:45.683Z,61.20
2023-09-06T14:49:14.680Z,60.40
2023-09-06T14:51:43.427Z,60.40
2023-09-06T14:54:11.974Z,60.30
2023-09-06T14:56:40.743Z,59.80
2023-09-06T14:59:09.791Z,59.60
2023-09-06T15:01:40.512Z,58.70
2023-09-06T15:04:09.393Z,58.40
2023-09-06T15:06:58.024Z,58.10
2023-09-06T15:09:28.423Z,58.50
2023-09-06T15:12:01.030Z,58.50
2023-09-06T15:14:30.604Z,58.10
2023-09-06T15:16:57.787Z,58.30
2023-09-06T15:19:25.946Z,58.40
2023-09-06T15:21:53.139Z,58.90
2023-09-06T15:24:22.121Z,58.90
2023-09-06T15:26:50.733Z,59.30
2023-09-06T15:29:19.639Z,59.00
2023-09-06T15:31:48.280Z,59.10
2023-09-06T15:34:16.950Z,59.20
2023-09-06T15:36:45.591Z,59.10
2023-09-06T15:39:15.454Z,59.10
2023-09-06T15:41:44.021Z,59.30
2023-09-06T15:44:12.634Z,59.20
2023-09-06T15:46:41.596Z,59.40
2023-09-06T15:49:08.830Z,59.70
2023-09-06T15:51:36.834Z,59.40
2023-09-06T15:54:05.327Z,59.60
2023-09-06T15:56:34.999Z,59.80
2023-09-06T15:59:03.397Z,60.10
2023-09-06T16:01:32.159Z,59.90
2023-09-06T16:03:59.571Z,60.10
2023-09-06T16:06:27.508Z,60.20
2023-09-06T16:08:55.045Z,60.30
2023-09-06T16:11:22.918Z,60.50
2023-09-06T16:13:51.012Z,60.40
2023-09-06T16:16:19.923Z,59.70
2023-09-06T16:18:52.483Z,59.70
2023-09-06T16:21:21.546Z,58.70
2023-09-06T16:23:51.108Z,59.10
2023-09-06T16:26:20.228Z,59.50
2023-09-06T16:28:49.164Z,59.60
2023-09-06T16:31:18.217Z,59.30
2023-09-06T16:33:49.637Z,60.00
2023-09-06T16:36:18.349Z,60.50
2023-09-06T16:38:46.569Z,60.70
2023-09-06T16:41:16.573Z,61.30
2023-09-06T16:43:46.059Z,61.40
2023-09-06T16:46:17.178Z,61.60
2023-09-06T16:48:45.737Z,61.90
2023-09-06T16:51:16.331Z,62.30
2023-09-06T16:53:45.506Z,62.20
2023-09-06T16:56:15.704Z,62.50
2023-09-06T16:58:46.296Z,62.00
2023-09-06T17:01:15.944Z,62.20
2023-09-06T17:03:46.245Z,62.80
2023-09-06T17:06:17.539Z,63.10
2023-09-06T17:08:46.250Z,63.40
2023-09-06T17:11:17.143Z,63.00
2023-09-06T17:13:47.355Z,63.40
2023-09-06T17:16:16.751Z,63.40
2023-09-06T17:18:51.260Z,63.20
2023-09-06T17:21:20.886Z,63.60
2023-09-06T17:24:02.434Z,64.10
2023-09-06T17:26:33.969Z,64.20
2023-09-06T17:29:02.625Z,64.60
2023-09-06T17:31:32.257Z,64.70
2023-09-06T17:34:01.482Z,65.20
2023-09-06T17:36:31.648Z,65.60
2023-09-06T17:39:02.429Z,66.30
2023-09-06T17:41:32.344Z,66.80
2023-09-06T17:44:02.414Z,67.00
2023-09-06T17:46:32.573Z,67.70
2023-09-06T17:49:03.993Z,68.30
2023-09-06T17:51:33.554Z,68.70
2023-09-06T17:54:06.689Z,69.40
2023-09-06T17:56:37.960Z,70.00
2023-09-06T17:59:10.638Z,71.10
2023-09-06T18:01:40.142Z,72.10
2023-09-06T18:04:11.925Z,73.20
2023-09-06T18:06:42.250Z,74.50
2023-09-06T18:09:13.985Z,75.30
2023-09-06T18:11:45.154Z,76.70
2023-09-06T18:14:16.910Z,77.70
2023-09-06T18:16:51.717Z,78.00
2023-09-06T18:19:22.359Z,78.30
2023-09-06T18:21:54.142Z,78.60
2023-09-06T18:24:23.379Z,79.10
2023-09-06T18:27:07.613Z,81.40
2023-09-06T18:29:39.846Z,81.80
2023-09-06T18:32:11.398Z,82.60
2023-09-06T18:34:40.407Z,83.90
2023-09-06T18:37:10.623Z,84.60
2023-09-06T18:39:40.998Z,85.50
2023-09-06T18:42:11.296Z,86.30
2023-09-06T18:44:41.508Z,86.90
2023-09-06T18:47:11.736Z,87.90
2023-09-06T18:49:41.411Z,88.90
2023-09-06T18:52:13.470Z,89.80
2023-09-06T18:54:46.121Z,90.40
2023-09-06T18:57:18.475Z,91.10
2023-09-06T18:59:47.574Z,91.10
2023-09-06T19:02:16.695Z,91.70
2023-09-06T19:04:46.834Z,92.20
2023-09-06T19:07:16.723Z,93.10
2023-09-06T19:09:47.298Z,93.80
2023-09-06T19:12:17.369Z,94.10
2023-09-06T19:14:47.390Z,95.20
2023-09-06T19:17:18.008Z,96.40
2023-09-06T19:19:50.289Z,96.90
2023-09-06T19:22:20.359Z,98.00
2023-09-06T19:24:50.986Z,99.30
2023-09-06T19:27:19.570Z,99.90
2023-09-06T19:29:49.667Z,99.90
2023-09-06T19:32:22.476Z,99.90
2023-09-06T19:34:53.453Z,99.90
2023-09-06T19:37:25.993Z,99.90
2023-09-06T19:39:58.557Z,99.90
2023-09-06T19:42:27.896Z,99.90
2023-09-06T19:44:57.402Z,99.90
2023-09-06T19:47:27.683Z,99.90
2023-09-06T19:50:03.109Z,99.90
2023-09-06T19:52:33.472Z,99.90
2023-09-06T19:55:06.109Z,99.90
2023-09-06T19:57:36.397Z,99.90
2023-09-06T20:00:06.153Z,99.90
2023-09-06T20:02:34.751Z,99.90
2023-09-06T20:05:06.133Z,99.90
2023-09-06T20:07:35.266Z,99.90
2023-09-06T20:10:07.605Z,99.90
2023-09-06T20:12:41.289Z,99.90
2023-09-06T20:15:15.898Z,99.90
2023-09-06T20:17:44.727Z,99.90
2023-09-06T20:20:14.212Z,99.90
2023-09-06T20:22:44.918Z,99.90
2023-09-06T20:25:14.387Z,99.90
2023-09-06T20:27:46.643Z,99.90
2023-09-06T20:30:17.556Z,99.90
2023-09-06T20:32:46.473Z,99.90
2023-09-06T20:35:15.833Z,99.90
2023-09-06T20:37:48.416Z,99.90
2023-09-06T20:40:19.538Z,99.90
2023-09-06T20:42:49.875Z,99.90
2023-09-06T20:45:21.707Z,99.90
2023-09-06T20:47:52.410Z,99.90
2023-09-06T20:50:24.408Z,99.90
2023-09-06T20:52:59.745Z,99.90
2023-09-06T20:55:46.122Z,99.90
2023-09-06T20:58:49.664Z,99.90
2023-09-06T21:01:32.449Z,99.90
2023-09-06T21:06:56.299Z,99.90
2023-09-06T21:09:28.364Z,99.90
2023-09-06T21:12:05.485Z,99.90
2023-09-06T21:14:39.464Z,99.90
2023-09-06T21:25:46.757Z,99.90
2023-09-06T21:28:16.582Z,99.90
2023-09-06T21:30:52.283Z,99.90
2023-09-06T21:33:27.615Z,99.90
2023-09-06T21:35:59.434Z,99.90
2023-09-06T21:41:24.403Z,99.90
2023-09-06T21:46:39.451Z,99.90
2023-09-06T21:52:13.902Z,99.90
2023-09-06T21:57:34.913Z,99.90
2023-09-06T22:00:06.285Z,99.90
2023-09-06T22:11:00.856Z,99.90
2023-09-06T22:13:29.331Z,99.90
2023-09-06T22:16:00.273Z,99.90
2023-09-06T22:18:29.750Z,99.90
2023-09-06T22:20:59.591Z,99.90
2023-09-06T22:23:30.069Z,99.90
2023-09-06T22:26:01.935Z,99.90
2023-09-06T22:28:32.447Z,99.90
2023-09-06T22:31:02.689Z,99.90
2023-09-06T22:33:33.368Z,99.90
2023-09-06T22:36:02.103Z,99.90
2023-09-06T22:38:32.309Z,99.90
2023-09-06T22:41:02.783Z,99.90
2023-09-06T22:43:32.240Z,99.90
2023-09-06T22:46:02.313Z,99.90
2023-09-06T22:48:44.394Z,99.90
2023-09-06T22:51:21.163Z,99.90
2023-09-06T22:53:51.562Z,99.90
2023-09-06T22:56:20.552Z,99.90
2023-09-06T22:58:50.367Z,99.90
2023-09-06T23:01:19.046Z,99.90
2023-09-06T23:03:49.512Z,99.90
2023-09-06T23:06:20.896Z,99.90
2023-09-06T23:08:51.794Z,99.90
2023-09-06T23:11:22.268Z,99.90
2023-09-06T23:13:52.693Z,99.90
2023-09-06T23:16:22.325Z,99.90
2023-09-06T23:18:52.917Z,99.90
2023-09-06T23:21:27.964Z,99.90
2023-09-06T23:24:00.903Z,99.90
2023-09-06T23:26:33.147Z,99.90
2023-09-06T23:29:07.647Z,99.90
2023-09-06T23:31:42.424Z,99.90
2023-09-06T23:34:16.430Z,99.90
2023-09-06T23:36:46.446Z,99.90
2023-09-06T23:39:21.899Z,99.90
2023-09-06T23:41:52.869Z,99.90
2023-09-06T23:44:22.145Z,99.90
2023-09-06T23:46:50.832Z,99.90
2023-09-06T23:49:21.546Z,99.90
2023-09-06T23:51:51.354Z,99.90
2023-09-06T23:54:29.765Z,99.90
2023-09-06T23:57:07.272Z,99.90
2023-09-06T23:59:35.986Z,99.90
